TAF KCLE
AMD KCLE 090914Z 0909/1012 19003KT P6SM SCT035 BKN250 FM100000 15016G25KT P6SM OVC070 WS020/18040KT FM100900 21009KT P6SM BKN010=
METAR KCLE
WC KCLE
WS KCLE
WV KCLE